createdAt,value
2024-05-09T00:01:54.824Z,22.40
2024-05-09T00:04:27.820Z,22.03
2024-05-09T00:06:58.180Z,19.50
2024-05-09T00:09:28.568Z,18.87
2024-05-09T00:11:59.048Z,18.67
2024-05-09T00:14:29.499Z,19.33
2024-05-09T00:16:59.943Z,20.00
2024-05-09T00:19:33.861Z,21.90
2024-05-09T00:22:04.387Z,15.40
2024-05-09T00:24:35.728Z,19.23
2024-05-09T00:27:06.095Z,22.77
2024-05-09T00:29:36.875Z,20.10
2024-05-09T00:32:07.502Z,23.40
2024-05-09T00:34:40.586Z,23.60
2024-05-09T00:37:10.949Z,20.43
2024-05-09T00:39:41.287Z,23.17
2024-05-09T00:42:11.575Z,22.47
2024-05-09T00:44:41.988Z,22.27
2024-05-09T00:47:12.621Z,26.13
2024-05-09T00:49:46.909Z,23.37
2024-05-09T00:52:17.342Z,22.57
2024-05-09T00:54:47.694Z,29.20
2024-05-09T00:57:18.097Z,25.50
2024-05-09T00:59:48.527Z,24.87
2024-05-09T01:02:19.363Z,27.93
2024-05-09T01:04:53.636Z,26.47
2024-05-09T01:07:24.157Z,25.67
2024-05-09T01:09:54.467Z,26.50
2024-05-09T01:12:24.939Z,30.70
2024-05-09T01:14:55.359Z,28.37
2024-05-09T01:17:25.930Z,24.67
2024-05-09T01:19:58.932Z,29.40
2024-05-09T01:22:29.723Z,31.73
2024-05-09T01:25:03.705Z,32.70
2024-05-09T01:27:34.463Z,25.23
2024-05-09T01:30:09.142Z,31.90
2024-05-09T01:32:40.087Z,28.50
2024-05-09T01:35:10.802Z,25.47
2024-05-09T01:37:41.126Z,24.60
2024-05-09T01:40:18.620Z,29.07
2024-05-09T01:42:55.217Z,29.00
2024-05-09T01:45:26.554Z,29.00
2024-05-09T01:47:57.096Z,23.37
2024-05-09T01:53:00.960Z,26.80
2024-05-09T01:55:35.025Z,28.90
2024-05-09T01:58:05.420Z,30.93
2024-05-09T02:00:40.139Z,30.70
2024-05-09T02:03:15.903Z,25.43
2024-05-09T02:05:48.484Z,27.60
2024-05-09T02:08:19.798Z,32.37
2024-05-09T02:10:53.143Z,30.67
2024-05-09T02:13:23.608Z,25.93
2024-05-09T02:15:53.921Z,25.63
2024-05-09T02:18:24.329Z,30.87
2024-05-09T02:20:54.728Z,26.37
2024-05-09T02:23:25.232Z,24.77
2024-05-09T02:25:58.190Z,27.30
2024-05-09T02:28:28.522Z,26.07
2024-05-09T02:30:58.868Z,23.63
2024-05-09T02:33:29.306Z,23.50
2024-05-09T02:35:59.689Z,26.57
2024-05-09T02:38:27.461Z,26.60
2024-05-09T02:41:00.544Z,29.03
2024-05-09T02:43:28.327Z,23.90
2024-05-09T02:45:58.638Z,27.00
2024-05-09T02:48:26.411Z,22.43
2024-05-09T02:50:57.038Z,23.10
2024-05-09T02:53:24.935Z,27.73
2024-05-09T02:55:55.417Z,28.33
2024-05-09T02:58:25.866Z,28.03
2024-05-09T03:00:56.304Z,25.57
2024-05-09T03:03:24.497Z,23.17
2024-05-09T03:05:55.074Z,24.50
2024-05-09T03:08:22.786Z,21.83
2024-05-09T03:10:53.588Z,25.60
2024-05-09T03:13:21.443Z,22.93
2024-05-09T03:15:54.392Z,24.87
2024-05-09T03:18:22.246Z,25.63
2024-05-09T03:20:53.854Z,23.13
2024-05-09T03:23:21.746Z,25.30
2024-05-09T03:25:54.225Z,25.17
2024-05-09T03:28:22.016Z,23.50
2024-05-09T03:30:54.998Z,22.27
2024-05-09T03:33:23.235Z,25.23
2024-05-09T03:35:53.729Z,20.63
2024-05-09T03:38:24.046Z,30.67
2024-05-09T03:40:54.471Z,27.60
2024-05-09T03:43:22.216Z,21.20
2024-05-09T03:45:55.804Z,21.97
2024-05-09T03:48:23.700Z,24.17
2024-05-09T03:50:54.418Z,22.10
2024-05-09T03:53:25.016Z,20.47
2024-05-09T03:55:57.511Z,22.20
2024-05-09T03:58:25.239Z,23.90
2024-05-09T04:00:58.246Z,24.20
2024-05-09T04:03:26.087Z,24.87
2024-05-09T04:05:56.646Z,22.93
2024-05-09T04:08:24.402Z,21.73
2024-05-09T04:10:54.914Z,25.37
2024-05-09T04:13:22.635Z,22.90
2024-05-09T04:15:52.967Z,24.87
2024-05-09T04:18:23.448Z,26.87
2024-05-09T04:20:53.963Z,26.80
2024-05-09T04:23:21.728Z,24.57
2024-05-09T04:25:52.040Z,26.60
2024-05-09T04:28:20.868Z,23.13
2024-05-09T04:30:51.170Z,27.20
2024-05-09T04:33:21.964Z,25.67
2024-05-09T04:35:54.595Z,26.73
2024-05-09T04:38:25.037Z,28.50
2024-05-09T04:40:52.864Z,28.57
2024-05-09T04:43:23.627Z,30.90
2024-05-09T04:45:51.334Z,27.10
2024-05-09T04:48:21.918Z,30.57
2024-05-09T04:50:49.929Z,28.47
2024-05-09T04:53:23.012Z,30.53
2024-05-09T04:55:51.226Z,32.30
2024-05-09T04:58:21.649Z,31.70
2024-05-09T05:00:49.388Z,33.93
2024-05-09T05:03:20.020Z,27.90
2024-05-09T05:05:47.900Z,28.00
2024-05-09T05:08:19.493Z,34.83
2024-05-09T05:10:50.346Z,34.93
2024-05-09T05:13:24.655Z,33.70
2024-05-09T05:15:56.924Z,35.20
2024-05-09T05:18:28.875Z,38.97
2024-05-09T05:20:57.567Z,37.30
2024-05-09T05:23:28.332Z,34.93
2024-05-09T05:26:00.866Z,35.13
2024-05-09T05:28:31.330Z,33.57
2024-05-09T05:30:59.053Z,37.50
2024-05-09T05:33:29.586Z,39.80
2024-05-09T05:35:58.470Z,41.77
2024-05-09T05:38:28.931Z,48.00
2024-05-09T05:40:56.963Z,38.83
2024-05-09T05:43:30.087Z,40.47
2024-05-09T05:45:57.839Z,44.10
2024-05-09T05:48:28.363Z,40.83
2024-05-09T05:50:56.284Z,47.83
2024-05-09T05:53:27.784Z,46.13
2024-05-09T05:55:55.635Z,48.17
2024-05-09T05:58:26.130Z,54.27
2024-05-09T06:00:56.613Z,53.63
2024-05-09T06:03:28.613Z,45.23
2024-05-09T06:05:56.784Z,29.93
2024-05-09T06:08:30.139Z,27.10
2024-05-09T06:10:58.303Z,22.67
2024-05-09T06:13:29.865Z,35.70
2024-05-09T06:16:00.798Z,21.83
2024-05-09T06:18:31.430Z,53.53
2024-05-09T06:20:59.235Z,34.70
2024-05-09T06:23:29.690Z,27.67
2024-05-09T06:25:57.572Z,25.87
2024-05-09T06:28:33.447Z,35.93
2024-05-09T06:31:05.174Z,35.57
2024-05-09T06:33:35.914Z,37.13
2024-05-09T06:36:03.872Z,58.57
2024-05-09T06:38:34.378Z,30.83
2024-05-09T06:41:02.345Z,63.00
2024-05-09T06:43:32.829Z,78.37
2024-05-09T06:46:04.324Z,46.60
2024-05-09T06:48:34.746Z,38.07
2024-05-09T06:51:02.639Z,36.40
2024-05-09T06:53:33.293Z,70.27
2024-05-09T06:56:01.264Z,50.63
2024-05-09T06:58:31.689Z,29.80
2024-05-09T07:00:59.557Z,41.57
2024-05-09T07:03:32.834Z,36.77
2024-05-09T07:06:00.720Z,32.00
2024-05-09T07:08:31.167Z,37.10
2024-05-09T07:10:59.015Z,36.60
2024-05-09T07:13:29.693Z,43.10
2024-05-09T07:15:57.422Z,38.63
2024-05-09T07:18:28.053Z,39.57
2024-05-09T07:20:58.822Z,42.40
2024-05-09T07:23:29.321Z,52.43
2024-05-09T07:25:58.602Z,39.70
2024-05-09T07:28:28.997Z,45.70
2024-05-09T07:30:56.776Z,64.30
2024-05-09T07:33:27.325Z,38.47
2024-05-09T07:36:01.135Z,39.07
2024-05-09T07:38:31.499Z,42.13
2024-05-09T07:41:01.595Z,38.53
2024-05-09T07:43:32.014Z,47.77
2024-05-09T07:46:37.819Z,39.17
2024-05-09T07:54:07.474Z,37.73
2024-05-09T07:56:36.856Z,45.30
2024-05-09T07:59:07.345Z,36.37
2024-05-09T08:01:35.246Z,42.80
2024-05-09T08:04:05.858Z,36.77
2024-05-09T08:06:36.401Z,33.90
2024-05-09T08:09:10.965Z,53.03
2024-05-09T08:11:41.857Z,40.90
2024-05-09T08:14:15.489Z,36.10
2024-05-09T08:16:43.193Z,45.40
2024-05-09T08:19:13.681Z,44.00
2024-05-09T08:21:46.678Z,36.00
2024-05-09T08:24:14.495Z,37.83
2024-05-09T08:26:44.928Z,33.13
2024-05-09T08:29:13.784Z,38.40
2024-05-09T08:31:44.397Z,34.07
2024-05-09T08:34:13.494Z,38.10
2024-05-09T08:36:46.656Z,39.67
2024-05-09T08:39:14.431Z,36.07
2024-05-09T08:41:47.741Z,34.20
2024-05-09T08:44:19.157Z,33.93
2024-05-09T08:46:50.691Z,36.43
2024-05-09T08:49:18.703Z,29.20
2024-05-09T08:51:53.842Z,27.37
2024-05-09T08:54:22.691Z,33.80
2024-05-09T08:56:54.137Z,30.67
2024-05-09T08:59:25.009Z,27.37
2024-05-09T09:01:55.692Z,28.03
2024-05-09T09:04:24.784Z,27.33
2024-05-09T09:07:00.288Z,31.37
2024-05-09T09:09:29.032Z,25.03
2024-05-09T09:11:59.443Z,25.03
2024-05-09T09:14:29.311Z,26.33
2024-05-09T09:16:59.628Z,25.53
2024-05-09T09:19:27.492Z,26.43
2024-05-09T09:22:00.717Z,25.23
2024-05-09T09:24:28.543Z,23.20
2024-05-09T09:27:01.225Z,19.63
2024-05-09T09:29:29.499Z,27.70
2024-05-09T09:32:03.901Z,26.30
2024-05-09T09:34:34.009Z,23.73
2024-05-09T09:37:10.399Z,24.53
2024-05-09T09:39:38.718Z,24.40
2024-05-09T09:42:09.761Z,19.33
2024-05-09T09:44:42.125Z,21.30
2024-05-09T09:47:13.307Z,19.60
2024-05-09T09:49:52.089Z,18.90
2024-05-09T09:52:25.412Z,21.03
2024-05-09T09:54:53.530Z,19.93
2024-05-09T09:57:24.151Z,20.90
2024-05-09T09:59:52.331Z,23.50
2024-05-09T10:02:46.857Z,19.07
2024-05-09T10:05:17.986Z,15.80
2024-05-09T10:07:48.509Z,18.50
2024-05-09T10:10:31.864Z,14.30
2024-05-09T10:13:01.347Z,19.83
2024-05-09T10:15:33.080Z,17.93
2024-05-09T10:18:06.397Z,20.23
2024-05-09T10:20:43.974Z,20.87
2024-05-09T10:23:30.091Z,15.00
2024-05-09T10:26:01.558Z,15.67
2024-05-09T10:28:29.701Z,16.43
2024-05-09T10:31:04.347Z,12.87
2024-05-09T10:33:50.993Z,16.20
2024-05-09T10:36:23.475Z,13.50
2024-05-09T10:38:55.209Z,16.40
2024-05-09T10:41:26.698Z,18.40
2024-05-09T10:43:54.397Z,14.00
2024-05-09T10:46:24.787Z,16.43
2024-05-09T10:48:53.327Z,14.47
2024-05-09T10:51:23.900Z,15.90
2024-05-09T10:53:56.891Z,18.93
2024-05-09T10:56:27.237Z,13.33
2024-05-09T10:58:55.071Z,11.53
2024-05-09T11:01:25.590Z,12.83
2024-05-09T11:03:53.632Z,17.60
2024-05-09T11:06:24.211Z,17.83
2024-05-09T11:08:54.755Z,22.63
2024-05-09T11:11:25.212Z,30.53
2024-05-09T11:13:53.102Z,14.43
2024-05-09T11:16:24.525Z,9.80
2024-05-09T11:18:55.974Z,17.73
2024-05-09T11:21:27.024Z,19.97
2024-05-09T11:23:58.199Z,19.10
2024-05-09T11:26:29.463Z,16.33
2024-05-09T11:28:57.263Z,18.60
2024-05-09T11:31:27.904Z,23.13
2024-05-09T11:33:55.865Z,13.50
2024-05-09T11:36:26.259Z,13.20
2024-05-09T11:38:57.686Z,13.63
2024-05-09T11:41:30.529Z,15.27
2024-05-09T11:43:58.277Z,15.00
2024-05-09T11:46:28.685Z,16.30
2024-05-09T11:48:56.649Z,14.00
2024-05-09T11:51:29.286Z,14.50
2024-05-09T11:53:59.741Z,13.80
2024-05-09T11:56:30.093Z,11.70
2024-05-09T11:58:57.815Z,6.87
2024-05-09T12:01:28.381Z,12.40
2024-05-09T12:03:56.471Z,12.50
2024-05-09T12:06:26.978Z,10.60
2024-05-09T12:08:54.811Z,15.87
2024-05-09T12:11:27.778Z,12.40
2024-05-09T12:13:55.547Z,16.37
2024-05-09T12:16:26.114Z,17.63
2024-05-09T12:18:54.142Z,11.20
2024-05-09T12:21:24.630Z,10.00
2024-05-09T12:23:52.363Z,16.63
2024-05-09T12:26:22.777Z,14.27
2024-05-09T12:28:53.327Z,13.50
2024-05-09T12:31:24.871Z,10.70
2024-05-09T12:33:54.455Z,13.73
2024-05-09T12:36:24.923Z,11.53
2024-05-09T12:38:52.665Z,9.40
2024-05-09T12:41:23.047Z,10.60
2024-05-09T12:43:53.366Z,9.87
2024-05-09T12:46:24.155Z,10.77
2024-05-09T12:48:53.724Z,13.83
2024-05-09T12:51:25.457Z,14.47
2024-05-09T12:53:53.212Z,10.50
2024-05-09T12:56:23.612Z,13.87
2024-05-09T12:58:59.958Z,12.13
2024-05-09T13:01:30.425Z,8.33
2024-05-09T13:03:58.423Z,9.10
2024-05-09T13:06:29.130Z,7.63
2024-05-09T13:08:56.880Z,7.70
2024-05-09T13:11:27.475Z,10.00
2024-05-09T13:13:55.277Z,8.77
2024-05-09T13:16:28.410Z,11.30
2024-05-09T13:18:56.228Z,9.83
2024-05-09T13:21:26.686Z,8.03
2024-05-09T13:23:56.200Z,9.73
2024-05-09T13:26:27.255Z,6.67
2024-05-09T13:28:56.123Z,9.17
2024-05-09T13:31:29.219Z,6.27
2024-05-09T13:33:59.765Z,5.70
2024-05-09T13:36:27.561Z,9.60
2024-05-09T13:38:59.301Z,7.03
2024-05-09T13:41:27.024Z,8.07
2024-05-09T13:43:57.335Z,12.23
2024-05-09T13:46:27.835Z,10.83
2024-05-09T13:48:58.422Z,7.93
2024-05-09T13:51:26.649Z,6.97
2024-05-09T13:53:59.262Z,7.00
2024-05-09T13:56:27.764Z,8.50
2024-05-09T13:58:58.272Z,10.60
2024-05-09T14:01:28.740Z,12.83
2024-05-09T14:04:00.460Z,10.13
2024-05-09T14:06:28.376Z,8.30
2024-05-09T14:08:58.772Z,12.70
2024-05-09T14:11:27.645Z,6.33
2024-05-09T14:13:58.264Z,9.37
2024-05-09T14:16:30.720Z,9.27
2024-05-09T14:19:01.838Z,8.77
2024-05-09T14:21:29.679Z,6.43
2024-05-09T14:24:01.147Z,11.73
2024-05-09T14:26:28.960Z,6.57
2024-05-09T14:29:06.657Z,9.30
2024-05-09T14:31:39.295Z,7.30
2024-05-09T14:34:10.464Z,8.47
2024-05-09T14:36:38.457Z,8.77
2024-05-09T14:39:18.945Z,13.00
2024-05-09T14:41:46.719Z,13.27
2024-05-09T14:44:17.195Z,11.70
2024-05-09T14:46:47.703Z,8.53
2024-05-09T14:49:18.482Z,9.30
2024-05-09T14:51:48.127Z,10.53
2024-05-09T14:54:18.881Z,7.37
2024-05-09T14:56:49.011Z,9.17
2024-05-09T14:59:19.341Z,7.80
2024-05-09T15:01:49.909Z,12.03
2024-05-09T15:04:20.609Z,10.33
2024-05-09T15:06:49.941Z,8.70
2024-05-09T15:09:27.369Z,8.87
2024-05-09T15:12:03.836Z,11.43
2024-05-09T15:14:39.656Z,10.07
2024-05-09T15:17:16.516Z,8.33
2024-05-09T15:19:48.428Z,7.93
2024-05-09T15:22:24.452Z,11.97
2024-05-09T15:24:57.063Z,9.43
2024-05-09T15:27:39.581Z,9.47
2024-05-09T15:30:13.223Z,8.90
2024-05-09T15:32:50.513Z,11.77
2024-05-09T15:35:20.976Z,12.20
2024-05-09T15:37:49.848Z,9.60
2024-05-09T15:40:30.472Z,8.07
2024-05-09T15:43:09.335Z,8.90
2024-05-09T15:45:41.655Z,9.83
2024-05-09T15:48:12.481Z,10.53
2024-05-09T15:50:43.688Z,9.90
2024-05-09T15:53:16.399Z,9.93
2024-05-09T15:55:47.812Z,10.27
2024-05-09T15:58:15.879Z,10.83
2024-05-09T16:00:52.486Z,8.77
2024-05-09T16:03:23.182Z,10.60
2024-05-09T16:05:55.633Z,14.90
2024-05-09T16:08:24.601Z,13.90
2024-05-09T16:10:55.357Z,15.33
2024-05-09T16:13:27.550Z,11.50
2024-05-09T16:15:59.835Z,11.53
2024-05-09T16:18:30.795Z,12.03
2024-05-09T16:21:06.511Z,14.67
2024-05-09T16:23:34.646Z,12.80
2024-05-09T16:26:05.316Z,13.40
2024-05-09T16:28:37.250Z,8.90
2024-05-09T16:31:07.868Z,13.97
2024-05-09T16:33:42.548Z,12.07
2024-05-09T16:36:44.108Z,12.03
2024-05-09T16:39:12.351Z,11.23
2024-05-09T16:41:42.712Z,12.83
2024-05-09T16:44:37.475Z,10.23
2024-05-09T16:47:08.326Z,9.57
2024-05-09T16:49:38.711Z,9.90
2024-05-09T16:52:09.959Z,13.00
2024-05-09T16:54:37.954Z,9.77
2024-05-09T16:57:08.790Z,8.50
2024-05-09T16:59:36.542Z,11.27
2024-05-09T17:02:09.617Z,12.63
2024-05-09T17:04:40.343Z,13.00
2024-05-09T17:07:11.103Z,13.07
2024-05-09T17:09:39.664Z,11.30
2024-05-09T17:12:10.081Z,9.93
2024-05-09T17:14:40.373Z,12.03
2024-05-09T17:17:09.978Z,9.70
2024-05-09T17:19:44.911Z,10.23
2024-05-09T17:22:12.680Z,8.67
2024-05-09T17:24:43.921Z,11.50
2024-05-09T17:27:15.294Z,11.53
2024-05-09T17:29:46.041Z,9.63
2024-05-09T17:32:14.160Z,12.07
2024-05-09T17:34:47.406Z,9.50
2024-05-09T17:37:17.098Z,8.53
2024-05-09T17:39:47.612Z,9.30
2024-05-09T17:42:15.666Z,10.70
2024-05-09T17:44:47.120Z,8.03
2024-05-09T17:47:14.899Z,9.70
2024-05-09T17:49:48.311Z,8.70
2024-05-09T17:52:17.372Z,10.27
2024-05-09T17:54:48.369Z,10.40
2024-05-09T17:57:17.193Z,11.47
2024-05-09T17:59:47.526Z,11.87
2024-05-09T18:02:15.335Z,15.63
2024-05-09T18:04:48.564Z,8.43
2024-05-09T18:07:16.521Z,10.13
2024-05-09T18:09:49.123Z,9.97
2024-05-09T18:12:16.869Z,11.60
2024-05-09T18:14:47.268Z,11.53
2024-05-09T18:17:16.342Z,13.10
2024-05-09T18:19:50.413Z,10.40
2024-05-09T18:22:19.442Z,14.43
2024-05-09T18:24:50.432Z,11.57
2024-05-09T18:27:18.302Z,14.97
2024-05-09T18:29:48.724Z,11.27
2024-05-09T18:32:16.477Z,12.57
2024-05-09T18:34:46.987Z,9.87
2024-05-09T18:37:17.578Z,10.93
2024-05-09T18:39:47.995Z,15.40
2024-05-09T18:42:16.840Z,12.57
2024-05-09T18:44:47.156Z,12.50
2024-05-09T18:47:16.808Z,15.30
2024-05-09T18:49:48.855Z,10.53
2024-05-09T18:52:19.505Z,21.70
2024-05-09T18:54:49.968Z,12.07
2024-05-09T18:57:18.845Z,11.63
2024-05-09T18:59:49.203Z,12.30
2024-05-09T19:02:17.072Z,13.17
2024-05-09T19:04:48.283Z,12.73
2024-05-09T19:07:18.785Z,12.33
2024-05-09T19:09:52.226Z,10.37
2024-05-09T19:12:20.015Z,10.23
2024-05-09T19:14:50.571Z,17.77
2024-05-09T19:17:18.393Z,10.87
2024-05-09T19:19:49.295Z,11.30
2024-05-09T19:22:33.426Z,12.80
2024-05-09T19:25:14.715Z,14.83
2024-05-09T19:27:49.582Z,21.70
2024-05-09T19:30:29.780Z,18.83
2024-05-09T19:33:05.691Z,19.77
2024-05-09T19:35:36.281Z,19.80
2024-05-09T19:38:04.294Z,19.87
2024-05-09T19:40:37.883Z,12.87
2024-05-09T19:43:06.919Z,19.33
2024-05-09T19:45:37.515Z,18.70
2024-05-09T19:48:06.447Z,19.83
2024-05-09T19:50:42.565Z,20.43
2024-05-09T19:53:12.498Z,20.20
2024-05-09T19:55:45.807Z,20.03
2024-05-09T19:58:13.884Z,18.40
2024-05-09T20:00:44.981Z,21.30
2024-05-09T20:03:14.085Z,20.30
2024-05-09T20:05:46.711Z,19.30
2024-05-09T20:08:15.249Z,20.53
2024-05-09T20:10:48.410Z,17.57
2024-05-09T20:13:16.665Z,21.67
2024-05-09T20:15:47.177Z,21.27
2024-05-09T20:18:15.113Z,18.60
2024-05-09T20:20:46.118Z,21.53
2024-05-09T20:23:15.073Z,20.13
2024-05-09T20:25:49.116Z,19.03
2024-05-09T20:28:17.009Z,19.23
2024-05-09T20:30:47.528Z,19.70
2024-05-09T20:33:15.313Z,15.93
2024-05-09T20:35:45.689Z,17.90
2024-05-09T20:38:13.962Z,21.17
2024-05-09T20:40:44.492Z,20.37
2024-05-09T20:43:14.951Z,22.40
2024-05-09T20:45:46.445Z,22.90
2024-05-09T20:48:14.420Z,21.80
2024-05-09T20:50:44.958Z,20.27
2024-05-09T20:53:14.714Z,20.67
2024-05-09T20:55:47.172Z,20.13
2024-05-09T20:58:17.604Z,21.67
2024-05-09T21:00:48.209Z,21.67
2024-05-09T21:03:17.185Z,23.47
2024-05-09T21:05:48.655Z,20.40
2024-05-09T21:08:16.750Z,23.97
2024-05-09T21:10:47.406Z,22.03
2024-05-09T21:13:18.054Z,21.07
2024-05-09T21:15:48.595Z,20.83
2024-05-09T21:18:16.407Z,23.97
2024-05-09T21:20:47.961Z,23.53
2024-05-09T21:23:15.802Z,24.83
2024-05-09T21:25:46.445Z,27.13
2024-05-09T21:28:15.122Z,30.90
2024-05-09T21:30:48.268Z,25.23
2024-05-09T21:33:16.450Z,22.50
2024-05-09T21:35:47.150Z,22.23
2024-05-09T21:38:15.095Z,24.00
2024-05-09T21:40:48.756Z,23.27
2024-05-09T21:43:16.504Z,25.77
2024-05-09T21:45:49.583Z,25.37
2024-05-09T21:48:17.340Z,23.03
2024-05-09T21:50:47.750Z,25.20
2024-05-09T21:53:15.453Z,25.47
2024-05-09T21:55:46.206Z,23.03
2024-05-09T21:58:14.449Z,22.70
2024-05-09T22:00:46.380Z,26.63
2024-05-09T22:03:17.319Z,22.87
2024-05-09T22:05:47.795Z,25.60
2024-05-09T22:08:15.680Z,24.27
2024-05-09T22:10:46.167Z,23.63
2024-05-09T22:13:15.638Z,25.70
2024-05-09T22:15:46.335Z,29.00
2024-05-09T22:18:16.877Z,26.00
2024-05-09T22:20:47.352Z,26.00
2024-05-09T22:23:15.668Z,25.13
2024-05-09T22:25:46.082Z,25.80
2024-05-09T22:28:14.780Z,23.37
2024-05-09T22:30:47.172Z,24.30
2024-05-09T22:33:18.248Z,25.57
2024-05-09T22:35:51.133Z,24.77
2024-05-09T22:38:18.856Z,22.27
2024-05-09T22:40:50.095Z,27.40
2024-05-09T22:43:23.207Z,22.77
2024-05-09T22:45:55.843Z,25.40
2024-05-09T22:48:26.684Z,22.43
2024-05-09T22:50:57.191Z,26.47
2024-05-09T22:53:25.776Z,26.47
2024-05-09T22:55:56.385Z,25.23
2024-05-09T22:58:24.477Z,24.57
2024-05-09T23:00:55.049Z,24.37
2024-05-09T23:03:23.250Z,26.67
2024-05-09T23:05:56.378Z,24.40
2024-05-09T23:08:24.072Z,32.10
2024-05-09T23:10:54.661Z,27.70
2024-05-09T23:13:22.672Z,26.30
2024-05-09T23:15:53.403Z,25.20
2024-05-09T23:18:21.248Z,24.83
2024-05-09T23:20:51.909Z,24.37
2024-05-09T23:23:22.518Z,26.50
2024-05-09T23:25:53.025Z,27.13
2024-05-09T23:28:20.814Z,26.13
2024-05-09T23:30:51.247Z,27.33
2024-05-09T23:33:19.088Z,29.63
2024-05-09T23:35:49.501Z,27.77
2024-05-09T23:38:18.406Z,25.83
2024-05-09T23:40:52.656Z,22.43
2024-05-09T23:43:20.744Z,21.57
2024-05-09T23:45:51.244Z,23.20
2024-05-09T23:48:19.109Z,21.87
2024-05-09T23:50:49.708Z,22.47
2024-05-09T23:53:17.440Z,20.10
2024-05-09T23:55:47.810Z,22.20
2024-05-09T23:58:18.280Z,24.20
